Terminal Aerodrome Forecast
Issued by NWS Sterling, VA

Home | Current Version | Previous Version | Text Only | Print | Product List | Glossary On
Versions: 1 2 3 4 5 6 7 8 9 10 11 12 13 14 15 16 17 18 19 20
000
FTUS41 KLWX 282326
TAFCHO
TAF
KCHO 282326Z 2900/2924 10004KT P6SM SHRA VCTS OVC050CB
     FM290300 11004KT 5SM SHRA VCTS OVC060CB
     FM290600 VRB03KT 3SM SHRA VCTS BKN050CB
     FM290900 VRB03KT P6SM BKN050=

USA.gov is the U.S. government's official web portal to all federal, state and local government web resources and services.